Terminal Aerodrome Forecast
Issued by NWS Charleston, WV

Current Version | Previous Version | Graphics & Text | Print | Product List | Glossary On
Versions: 1 2 3 4 5 6 7 8 9 10 11 12 13 14 15 16 17 18 19 20 21 22 23 24 25
058
FTUS41 KRLX 081124
TAFCRW
TAF
KCRW 081124Z 0812/0912 18004KT P6SM OVC040
     FM081500 19006KT 4SM -SHRA OVC023
     FM081900 21006KT 3SM -SHRA OVC008
     FM082200 23005KT 5SM -SHRA OVC014
     FM090300 25005KT 2SM -SHSN OVC011=

USA.gov is the U.S. government's official web portal to all federal, state and local government web resources and services.